Detall de PIREP

Printer-friendly versionPDF version

[2015/11/22 07:54:00]
Flight IATA:CT3402
Pilot Number:012
Company ICAO:CAT
Aircraft Type:MD11/E
PAX:252
Aircraft Registration:PAX
Departing Airport: LEBL
Destination Airport: ENGM
Alternate Airport:ENTO
Online: VATSIM
Route:OKABI/M084F320 UN861 FISTO UY156 ADABI UN858 VANAD UN874 VEKIN UN873 ADUTO/M0844F310 UN873 TOLEN JUIST UN873 TUSKA INSUS AMSEV PIPEX M609 RIPAM
Flight Level:F330
No Slew and time accel
No pause
Crash detect
Detect pilot in Cockpit between each 30 and 45 minutes
07:54 Zero fuel Weight: 398799 Lbs, Fuel Weight: 74056 Lbs
07:54 VATSIM:LEBL 220730Z 33019KT 9999 FEW030 08/01 Q1010 NOSIG
07:54 VATSIM:ENGM 220720Z 01003KT 330V060 CAVOK M08/M11 Q1008 NOSIG
07:57 Parking Brakes off
08:03 Take-off
08:03 Take off Weight: 471392 Lbs
08:03 Wind: 329º @ 019 Knots Heading: 247º
08:03 POS N41º 17´ 05´´ E002º 04´ 53´´
08:03 Gear Up: 208 Knots
08:03 Flaps:3 at 208 Knots
08:05 Flaps:2 at 223 Knots
08:05 Flaps:3 at 224 Knots
08:05 Flaps:2 at 225 Knots
08:05 Flaps:1 at 226 Knots
08:05 Flaps:0 at 237 Knots
08:18 Wind:331º@038 Knots Heading: 349º Ground Speed: 438 Knots Altitude 31912 ft
08:33 Wind:331º@040 Knots Heading: 350º Ground Speed: 431 Knots Altitude 32020 ft
08:48 Wind:338º@050 Knots Heading: 357º Ground Speed: 421 Knots Altitude 32017 ft
09:03 Wind:335º@047 Knots Heading: 011º Ground Speed: 431 Knots Altitude 31994 ft
09:18 Wind:343º@036 Knots Heading: 041º Ground Speed: 452 Knots Altitude 31961 ft
09:28 TOC
09:28 Fuel Weight: 44061 Lb
09:33 Wind:000º@035 Knots Heading: 019º Ground Speed: 434 Knots Altitude 32916 ft
09:48 Wind:351º@051 Knots Heading: 031º Ground Speed: 432 Knots Altitude 32841 ft
10:03 Wind:350º@057 Knots Heading: 015º Ground Speed: 418 Knots Altitude 32719 ft
10:18 Wind:008º@065 Knots Heading: 006º Ground Speed: 401 Knots Altitude 32696 ft
10:33 Wind:007º@063 Knots Heading: 006º Ground Speed: 402 Knots Altitude 32752 ft
10:47 TOD
10:47 Fuel Weight: 23203 Lb
10:48 Wind:015º@071 Knots Heading: 018º Ground Speed: 383 Knots Altitude 32211 ft
11:00 Flaps:1 at 274 Knots
11:03 Wind:027º@015 Knots Heading: 027º Ground Speed: 250 Knots Altitude 9773 ft
11:04 Flaps:2 at 245 Knots
11:04 Flaps:3 at 245 Knots
11:07 Flaps:4 at 188 Knots
11:07 Flaps:3 at 188 Knots
11:07 Flaps:4 at 189 Knots
11:07 Flaps:5 at 190 Knots
11:07 Flaps:6 at 190 Knots
11:07 Flaps:7 at 180 Knots
11:08 Gear Down: 182 Knots
11:08 Flaps:6 at 191 Knots
11:08 Flaps:7 at 191 Knots
11:12 TouchDown:Rate -182 ft/min Speed: 164 Knots
11:12 VATSIM:ENGM 221050Z 33003KT 260V010 CAVOK M03/M10 Q1010 NOSIG
11:12 Land
11:12 Wind:357º@002 Knots
11:12 Heading: 020º
11:12 Flight Duration: 03:09
11:12 Landing Weight: 417667 Lbs
11:12 POS N60º 11´ 19´´ E011º 06´ 54´´
11:16 Parking brakes on
11:16 Block to Block Duration: 03:19
11:16 Final Fuel: 18419 Lbls
11:16 Spent Fuel: 55637 Lbls
11:16 Flight Length: 1266 NM
11:16 TOD Land Length: 117 NM

Exportar CSV

Powered by Drupal - Modified by Danger4k